Terminal Aerodrome Forecast
Issued by NWS

Home | Current Version | Previous Version | Text Only | Print | Product List | Glossary On
Versions: 1 2 3 4 5 6 7 8 9 10 11 12 13 14 15
000
FTUS45 KABQ 232340
TAFLVS
TAF
KLVS 232340Z 2400/2424 24016G26KT P6SM SCT080
     FM240200 30006KT P6SM FEW200
     FM241500 20011KT P6SM FEW200
     FM241900 22015G25KT P6SM VCTS SCT070CB BKN150
     FM242300 30012G20KT P6SM SCT060 BKN150=

USA.gov is the U.S. government's official web portal to all federal, state and local government web resources and services.